createdAt,value
2023-08-11T00:00:34.903Z,54.41
2023-08-11T00:03:24.009Z,54.36
2023-08-11T00:05:55.562Z,54.51
2023-08-11T00:08:24.681Z,54.97
2023-08-11T00:10:54.401Z,55.01
2023-08-11T00:13:23.343Z,55.01
2023-08-11T00:15:52.750Z,54.95
2023-08-11T00:18:22.055Z,54.93
2023-08-11T00:20:51.263Z,54.73
2023-08-11T00:23:20.877Z,54.69
2023-08-11T00:25:50.357Z,54.58
2023-08-11T00:28:19.876Z,54.37
2023-08-11T00:30:50.570Z,54.69
2023-08-11T00:33:20.677Z,54.93
2023-08-11T00:35:49.699Z,54.92
2023-08-11T00:38:19.103Z,55.37
2023-08-11T00:40:47.977Z,55.80
2023-08-11T00:43:17.048Z,56.01
2023-08-11T00:45:49.892Z,56.29
2023-08-11T00:48:19.139Z,56.35
2023-08-11T00:50:49.308Z,56.32
2023-08-11T00:53:19.200Z,56.35
2023-08-11T00:55:48.068Z,56.46
2023-08-11T00:58:17.439Z,56.64
2023-08-11T01:00:48.630Z,56.66
2023-08-11T01:03:18.985Z,56.63
2023-08-11T01:06:07.158Z,56.52
2023-08-11T01:08:50.618Z,56.49
2023-08-11T01:11:40.433Z,56.75
2023-08-11T01:14:42.604Z,56.49
2023-08-11T01:17:16.095Z,56.71
2023-08-11T01:19:47.235Z,56.75
2023-08-11T01:22:19.145Z,56.76
2023-08-11T01:24:48.605Z,56.82
2023-08-11T01:27:17.818Z,56.82
2023-08-11T01:29:47.198Z,57.02
2023-08-11T01:32:16.597Z,57.18
2023-08-11T01:34:45.397Z,57.40
2023-08-11T01:37:14.204Z,57.50
2023-08-11T01:39:43.051Z,57.63
2023-08-11T01:42:13.301Z,57.65
2023-08-11T01:44:43.321Z,57.63
2023-08-11T01:47:13.399Z,57.58
2023-08-11T01:49:44.534Z,57.54
2023-08-11T01:52:14.917Z,57.41
2023-08-11T01:54:45.372Z,57.40
2023-08-11T01:57:15.627Z,57.64
2023-08-11T01:59:45.333Z,57.57
2023-08-11T02:02:14.805Z,57.40
2023-08-11T02:04:43.843Z,57.31
2023-08-11T02:07:12.984Z,57.45
2023-08-11T02:09:42.970Z,57.70
2023-08-11T02:12:11.781Z,57.72
2023-08-11T02:14:40.652Z,57.64
2023-08-11T02:17:10.419Z,57.65
2023-08-11T02:19:39.622Z,57.61
2023-08-11T02:22:08.593Z,57.61
2023-08-11T02:24:37.810Z,57.93
2023-08-11T02:27:07.435Z,58.24
2023-08-11T02:29:38.248Z,58.02
2023-08-11T02:32:07.313Z,57.86
2023-08-11T02:34:36.956Z,57.84
2023-08-11T02:37:06.630Z,57.73
2023-08-11T02:39:38.992Z,57.60
2023-08-11T02:42:09.951Z,57.73
2023-08-11T02:44:39.520Z,58.19
2023-08-11T02:47:09.432Z,58.45
2023-08-11T02:49:38.618Z,58.60
2023-08-11T02:52:07.811Z,58.88
2023-08-11T02:54:37.807Z,58.73
2023-08-11T02:57:07.641Z,58.68
2023-08-11T02:59:36.737Z,58.75
2023-08-11T03:02:06.303Z,58.87
2023-08-11T03:04:37.994Z,58.92
2023-08-11T03:07:07.452Z,59.13
2023-08-11T03:09:36.799Z,59.31
2023-08-11T03:12:06.366Z,59.39
2023-08-11T03:14:38.638Z,59.53
2023-08-11T03:17:08.012Z,59.56
2023-08-11T03:19:37.575Z,59.63
2023-08-11T03:22:07.650Z,59.68
2023-08-11T03:24:37.533Z,59.87
2023-08-11T03:27:07.974Z,60.12
2023-08-11T03:29:37.225Z,60.16
2023-08-11T03:32:07.316Z,60.08
2023-08-11T03:34:37.991Z,60.06
2023-08-11T03:37:08.898Z,60.07
2023-08-11T03:39:39.529Z,60.12
2023-08-11T03:42:11.316Z,60.13
2023-08-11T03:44:43.630Z,60.07
2023-08-11T03:47:13.113Z,59.74
2023-08-11T03:49:42.830Z,59.40
2023-08-11T03:52:12.610Z,59.33
2023-08-11T03:54:45.675Z,59.07
2023-08-11T03:57:16.036Z,58.63
2023-08-11T03:59:46.207Z,58.53
2023-08-11T04:02:17.306Z,58.42
2023-08-11T04:04:49.687Z,58.56
2023-08-11T04:07:20.302Z,58.80
2023-08-11T04:09:50.679Z,59.51
2023-08-11T04:12:22.147Z,60.03
2023-08-11T04:14:52.483Z,60.40
2023-08-11T04:17:23.625Z,60.87
2023-08-11T04:19:56.008Z,60.66
2023-08-11T04:22:38.234Z,60.88
2023-08-11T04:25:12.564Z,60.67
2023-08-11T04:27:43.000Z,60.81
2023-08-11T04:30:14.104Z,60.70
2023-08-11T04:32:45.194Z,60.70
2023-08-11T04:35:17.056Z,60.78
2023-08-11T04:37:48.816Z,60.93
2023-08-11T04:40:19.646Z,60.77
2023-08-11T04:42:50.489Z,60.85
2023-08-11T04:45:23.005Z,60.59
2023-08-11T04:47:52.649Z,60.74
2023-08-11T04:50:21.861Z,60.88
2023-08-11T04:52:51.542Z,60.99
2023-08-11T04:55:22.453Z,60.87
2023-08-11T04:57:52.068Z,60.42
2023-08-11T05:00:22.319Z,59.91
2023-08-11T05:02:54.275Z,59.80
2023-08-11T05:05:25.289Z,59.92
2023-08-11T05:07:54.824Z,59.93
2023-08-11T05:10:24.257Z,59.95
2023-08-11T05:12:53.714Z,59.87
2023-08-11T05:15:24.319Z,59.81
2023-08-11T05:17:53.536Z,59.56
2023-08-11T05:20:24.248Z,59.41
2023-08-11T05:22:54.945Z,59.17
2023-08-11T05:25:24.232Z,59.07
2023-08-11T05:27:53.736Z,59.04
2023-08-11T05:30:29.879Z,59.11
2023-08-11T05:32:59.703Z,59.11
2023-08-11T05:35:31.306Z,59.17
2023-08-11T05:38:03.289Z,58.95
2023-08-11T05:40:33.932Z,58.77
2023-08-11T05:43:03.692Z,58.36
2023-08-11T05:45:35.213Z,58.00
2023-08-11T05:48:05.732Z,57.61
2023-08-11T05:50:36.645Z,57.45
2023-08-11T05:53:06.326Z,57.26
2023-08-11T05:55:36.581Z,57.02
2023-08-11T05:58:06.432Z,56.97
2023-08-11T06:00:36.596Z,57.00
2023-08-11T06:03:06.863Z,56.95
2023-08-11T06:05:37.201Z,56.92
2023-08-11T06:08:07.449Z,56.80
2023-08-11T06:10:37.325Z,56.69
2023-08-11T06:13:07.021Z,56.12
2023-08-11T06:15:36.422Z,55.85
2023-08-11T06:18:07.087Z,55.59
2023-08-11T06:20:41.681Z,55.70
2023-08-11T06:23:14.077Z,55.50
2023-08-11T06:25:44.361Z,55.15
2023-08-11T06:28:13.757Z,55.00
2023-08-11T06:30:42.706Z,54.70
2023-08-11T06:33:12.817Z,54.57
2023-08-11T06:35:44.558Z,54.34
2023-08-11T06:38:13.921Z,54.06
2023-08-11T06:40:46.499Z,53.62
2023-08-11T06:43:16.915Z,53.21
2023-08-11T06:45:47.629Z,52.78
2023-08-11T06:48:17.813Z,52.32
2023-08-11T06:50:47.621Z,51.82
2023-08-11T06:53:18.018Z,51.44
2023-08-11T06:55:48.725Z,51.36
2023-08-11T06:58:18.648Z,50.46
2023-08-11T07:00:49.891Z,49.22
2023-08-11T07:03:19.733Z,48.04
2023-08-11T07:05:53.149Z,46.21
2023-08-11T07:08:22.795Z,45.41
2023-08-11T07:10:54.537Z,44.19
2023-08-11T07:13:25.311Z,43.34
2023-08-11T07:15:58.774Z,42.43
2023-08-11T07:18:29.707Z,41.88
2023-08-11T07:20:59.148Z,41.19
2023-08-11T07:23:28.523Z,40.05
2023-08-11T07:25:57.995Z,39.34
2023-08-11T07:28:26.743Z,38.55
2023-08-11T07:30:56.053Z,37.38
2023-08-11T07:33:25.550Z,37.04
2023-08-11T07:35:54.422Z,36.15
2023-08-11T07:38:23.836Z,35.77
2023-08-11T07:40:53.913Z,35.80
2023-08-11T07:43:22.879Z,35.25
2023-08-11T07:45:52.435Z,34.27
2023-08-11T07:48:21.666Z,34.09
2023-08-11T07:50:50.270Z,33.42
2023-08-11T07:53:19.209Z,32.79
2023-08-11T07:55:49.478Z,32.48
2023-08-11T07:58:21.363Z,31.89
2023-08-11T08:00:53.102Z,31.55
2023-08-11T08:03:25.730Z,30.75
2023-08-11T08:05:56.420Z,30.55
2023-08-11T08:08:29.373Z,30.38
2023-08-11T08:11:01.510Z,30.40
2023-08-11T08:13:34.082Z,30.46
2023-08-11T08:16:03.936Z,30.16
2023-08-11T08:18:34.293Z,29.85
2023-08-11T08:21:05.976Z,29.48
2023-08-11T08:23:38.004Z,28.95
2023-08-11T08:26:10.758Z,28.51
2023-08-11T08:28:42.355Z,28.41
2023-08-11T08:31:13.099Z,27.88
2023-08-11T08:33:42.519Z,27.68
2023-08-11T08:36:11.912Z,27.07
2023-08-11T08:38:42.965Z,26.99
2023-08-11T08:41:15.954Z,26.24
2023-08-11T08:43:45.819Z,25.52
2023-08-11T08:46:17.749Z,25.58
2023-08-11T08:49:11.051Z,25.65
2023-08-11T08:51:42.664Z,25.63
2023-08-11T08:54:14.537Z,24.90
2023-08-11T08:56:46.141Z,24.62
2023-08-11T08:59:18.840Z,23.97
2023-08-11T09:01:50.678Z,23.69
2023-08-11T09:04:24.440Z,23.66
2023-08-11T09:06:57.044Z,23.71
2023-08-11T09:09:29.484Z,23.77
2023-08-11T09:11:59.564Z,23.45
2023-08-11T09:14:29.064Z,23.13
2023-08-11T09:17:03.838Z,22.73
2023-08-11T09:19:33.388Z,22.60
2023-08-11T09:22:02.375Z,22.38
2023-08-11T09:24:33.168Z,22.31
2023-08-11T09:27:02.658Z,21.87
2023-08-11T09:29:32.977Z,21.71
2023-08-11T09:32:05.923Z,21.66
2023-08-11T09:34:41.321Z,21.40
2023-08-11T09:37:11.383Z,21.33
2023-08-11T09:39:43.853Z,21.28
2023-08-11T09:42:17.024Z,21.07
2023-08-11T09:44:47.826Z,21.06
2023-08-11T09:47:23.156Z,20.81
2023-08-11T09:49:53.786Z,20.75
2023-08-11T09:52:25.638Z,20.83
2023-08-11T09:54:58.257Z,20.87
2023-08-11T09:57:28.639Z,20.64
2023-08-11T10:00:01.698Z,20.47
2023-08-11T10:02:33.777Z,20.42
2023-08-11T10:05:10.065Z,20.44
2023-08-11T10:07:42.609Z,20.56
2023-08-11T10:10:19.821Z,20.48
2023-08-11T10:13:08.167Z,20.36
2023-08-11T10:15:39.772Z,20.27
2023-08-11T10:18:10.437Z,19.87
2023-08-11T10:20:40.258Z,19.75
2023-08-11T10:23:10.790Z,19.75
2023-08-11T10:25:40.437Z,19.16
2023-08-11T10:28:13.149Z,19.05
2023-08-11T10:30:42.405Z,19.35
2023-08-11T10:33:12.056Z,18.78
2023-08-11T10:35:47.544Z,18.79
2023-08-11T10:38:30.231Z,18.69
2023-08-11T10:41:04.582Z,18.67
2023-08-11T10:43:43.634Z,18.36
2023-08-11T10:46:31.890Z,18.35
2023-08-11T10:49:22.627Z,17.72
2023-08-11T10:51:56.323Z,17.38
2023-08-11T10:54:27.401Z,17.74
2023-08-11T10:57:00.607Z,17.55
2023-08-11T10:59:31.776Z,17.54
2023-08-11T11:02:04.549Z,17.31
2023-08-11T11:04:34.688Z,17.66
2023-08-11T11:07:03.945Z,17.56
2023-08-11T11:09:33.472Z,16.86
2023-08-11T11:12:02.454Z,17.10
2023-08-11T11:14:31.555Z,17.44
2023-08-11T11:17:05.749Z,17.10
2023-08-11T11:19:34.745Z,16.79
2023-08-11T11:22:04.421Z,16.53
2023-08-11T11:24:33.970Z,16.37
2023-08-11T11:27:03.024Z,16.43
2023-08-11T11:29:33.145Z,16.54
2023-08-11T11:32:08.576Z,16.32
2023-08-11T11:34:41.277Z,16.36
2023-08-11T11:37:11.171Z,16.43
2023-08-11T11:39:40.933Z,15.98
2023-08-11T11:42:13.670Z,15.92
2023-08-11T11:44:43.890Z,15.64
2023-08-11T11:47:14.059Z,15.90
2023-08-11T11:49:43.226Z,15.69
2023-08-11T11:52:13.475Z,15.61
2023-08-11T11:54:43.535Z,15.68
2023-08-11T11:57:13.324Z,15.58
2023-08-11T11:59:44.272Z,15.77
2023-08-11T12:02:15.119Z,15.95
2023-08-11T12:04:49.750Z,16.20
2023-08-11T12:07:36.341Z,16.02
2023-08-11T12:10:07.491Z,15.88
2023-08-11T12:12:38.881Z,15.77
2023-08-11T12:15:09.787Z,15.82
2023-08-11T12:17:39.619Z,15.84
2023-08-11T12:20:10.315Z,16.18
2023-08-11T12:22:40.314Z,16.20
2023-08-11T12:25:12.284Z,15.90
2023-08-11T12:27:44.153Z,15.93
2023-08-11T12:30:15.885Z,15.57
2023-08-11T12:32:45.988Z,15.25
2023-08-11T12:35:15.567Z,15.01
2023-08-11T12:37:45.284Z,15.09
2023-08-11T12:40:14.452Z,15.31
2023-08-11T12:42:43.359Z,15.53
2023-08-11T12:45:13.353Z,15.41
2023-08-11T12:47:43.048Z,15.44
2023-08-11T12:50:13.321Z,15.39
2023-08-11T12:52:43.717Z,15.26
2023-08-11T12:55:17.970Z,15.32
2023-08-11T12:57:48.079Z,15.43
2023-08-11T13:00:18.846Z,15.61
2023-08-11T13:02:49.505Z,15.40
2023-08-11T13:05:19.204Z,15.29
2023-08-11T13:07:49.381Z,15.10
2023-08-11T13:10:19.561Z,15.32
2023-08-11T13:12:49.684Z,15.66
2023-08-11T13:15:19.946Z,15.23
2023-08-11T13:17:49.847Z,15.37
2023-08-11T13:20:20.046Z,15.38
2023-08-11T13:22:50.065Z,15.04
2023-08-11T13:25:19.097Z,15.31
2023-08-11T13:27:48.412Z,15.15
2023-08-11T13:30:18.740Z,15.30
2023-08-11T13:32:49.457Z,15.07
2023-08-11T13:35:19.120Z,15.05
2023-08-11T13:37:48.984Z,15.17
2023-08-11T13:40:19.016Z,15.48
2023-08-11T13:42:48.757Z,15.53
2023-08-11T13:45:19.429Z,15.44
2023-08-11T13:47:49.651Z,15.38
2023-08-11T13:50:21.086Z,15.37
2023-08-11T13:52:51.161Z,15.32
2023-08-11T13:55:21.511Z,15.17
2023-08-11T13:57:53.110Z,15.66
2023-08-11T14:00:24.924Z,16.33
2023-08-11T14:02:56.198Z,16.37
2023-08-11T14:05:27.858Z,15.89
2023-08-11T14:07:58.772Z,16.32
2023-08-11T14:10:28.651Z,16.64
2023-08-11T14:13:03.220Z,16.41
2023-08-11T14:15:38.830Z,16.05
2023-08-11T14:18:10.624Z,15.99
2023-08-11T14:20:41.434Z,16.24
2023-08-11T14:23:12.813Z,16.34
2023-08-11T14:25:42.409Z,16.37
2023-08-11T14:28:12.570Z,16.42
2023-08-11T14:30:43.040Z,16.68
2023-08-11T14:33:13.262Z,16.95
2023-08-11T14:35:44.970Z,16.80
2023-08-11T14:38:17.797Z,16.42
2023-08-11T14:40:50.923Z,16.71
2023-08-11T14:43:22.990Z,16.98
2023-08-11T14:45:54.033Z,16.97
2023-08-11T14:48:27.963Z,17.69
2023-08-11T14:50:59.375Z,17.98
2023-08-11T14:53:32.415Z,17.93
2023-08-11T14:56:02.144Z,18.02
2023-08-11T14:58:32.939Z,18.00
2023-08-11T15:01:03.117Z,18.01
2023-08-11T15:03:34.527Z,18.19
2023-08-11T15:06:06.953Z,18.01
2023-08-11T15:08:37.458Z,17.64
2023-08-11T15:11:07.312Z,17.54
2023-08-11T15:13:37.069Z,18.22
2023-08-11T15:16:07.542Z,18.31
2023-08-11T15:18:38.496Z,18.51
2023-08-11T15:21:10.235Z,18.64
2023-08-11T15:23:41.034Z,19.09
2023-08-11T15:26:11.804Z,19.67
2023-08-11T15:28:42.951Z,19.81
2023-08-11T15:31:14.148Z,19.57
2023-08-11T15:33:45.445Z,19.78
2023-08-11T15:36:14.712Z,20.22
2023-08-11T15:38:45.156Z,20.49
2023-08-11T15:41:15.641Z,21.38
2023-08-11T15:43:46.471Z,21.76
2023-08-11T15:46:16.693Z,22.09
2023-08-11T15:48:46.408Z,22.17
2023-08-11T15:51:16.100Z,22.80
2023-08-11T15:53:46.935Z,23.51
2023-08-11T15:56:17.352Z,23.63
2023-08-11T15:58:48.900Z,23.73
2023-08-11T16:01:20.115Z,23.97
2023-08-11T16:03:49.585Z,24.15
2023-08-11T16:06:18.872Z,24.25
2023-08-11T16:08:48.060Z,24.15
2023-08-11T16:11:18.273Z,24.29
2023-08-11T16:13:47.881Z,24.38
2023-08-11T16:16:17.050Z,24.56
2023-08-11T16:18:47.260Z,24.88
2023-08-11T16:21:16.679Z,24.99
2023-08-11T16:23:47.844Z,25.13
2023-08-11T16:26:18.464Z,25.40
2023-08-11T16:28:47.692Z,25.49
2023-08-11T16:31:16.726Z,25.50
2023-08-11T16:33:46.104Z,25.68
2023-08-11T16:36:15.573Z,25.78
2023-08-11T16:38:45.072Z,25.92
2023-08-11T16:41:15.446Z,25.94
2023-08-11T16:43:45.832Z,26.07
2023-08-11T16:46:17.625Z,26.10
2023-08-11T16:48:48.371Z,26.14
2023-08-11T16:51:17.629Z,26.21
2023-08-11T16:53:47.287Z,26.47
2023-08-11T16:56:18.133Z,26.33
2023-08-11T16:58:48.136Z,26.40
2023-08-11T17:01:17.382Z,26.34
2023-08-11T17:03:46.868Z,26.38
2023-08-11T17:06:20.743Z,26.36
2023-08-11T17:08:51.939Z,26.52
2023-08-11T17:11:21.048Z,26.49
2023-08-11T17:13:50.569Z,26.49
2023-08-11T17:16:21.031Z,26.91
2023-08-11T17:18:51.172Z,27.26
2023-08-11T17:21:20.460Z,27.10
2023-08-11T17:23:56.157Z,27.39
2023-08-11T17:26:25.694Z,27.31
2023-08-11T17:28:56.068Z,27.50
2023-08-11T17:31:25.813Z,27.55
2023-08-11T17:33:56.554Z,27.83
2023-08-11T17:36:30.381Z,28.11
2023-08-11T17:39:00.192Z,28.04
2023-08-11T17:41:29.769Z,27.97
2023-08-11T17:43:58.738Z,27.96
2023-08-11T17:46:28.387Z,28.13
2023-08-11T17:48:58.320Z,27.98
2023-08-11T17:51:27.278Z,28.10
2023-08-11T17:54:08.984Z,28.15
2023-08-11T17:56:39.420Z,28.14
2023-08-11T17:59:09.042Z,28.02
2023-08-11T18:01:39.497Z,28.27
2023-08-11T18:04:08.785Z,28.59
2023-08-11T18:06:38.238Z,28.55
2023-08-11T18:09:08.058Z,28.75
2023-08-11T18:11:38.780Z,29.03
2023-08-11T18:14:07.865Z,29.33
2023-08-11T18:16:37.647Z,29.59
2023-08-11T18:19:06.963Z,29.96
2023-08-11T18:21:36.537Z,30.24
2023-08-11T18:24:06.144Z,30.38
2023-08-11T18:26:36.249Z,30.63
2023-08-11T18:29:05.824Z,30.62
2023-08-11T18:31:35.342Z,30.78
2023-08-11T18:34:04.643Z,30.78
2023-08-11T18:36:33.893Z,30.96
2023-08-11T18:39:03.605Z,30.98
2023-08-11T18:41:32.843Z,31.37
2023-08-11T18:44:02.205Z,31.20
2023-08-11T18:46:33.591Z,31.31
2023-08-11T18:49:06.093Z,31.47
2023-08-11T18:51:35.614Z,31.64
2023-08-11T18:54:05.666Z,31.92
2023-08-11T18:56:43.268Z,32.01
2023-08-11T18:59:13.393Z,31.91
2023-08-11T19:01:43.282Z,32.38
2023-08-11T19:04:13.608Z,32.73
2023-08-11T19:06:43.377Z,32.87
2023-08-11T19:09:13.316Z,32.98
2023-08-11T19:11:42.741Z,33.08
2023-08-11T19:14:12.216Z,33.61
2023-08-11T19:16:41.676Z,33.60
2023-08-11T19:19:15.859Z,33.74
2023-08-11T19:21:45.759Z,34.08
2023-08-11T19:24:15.169Z,34.16
2023-08-11T19:26:46.373Z,34.31
2023-08-11T19:29:15.801Z,34.84
2023-08-11T19:31:46.076Z,35.09
2023-08-11T19:34:16.037Z,35.43
2023-08-11T19:36:45.877Z,35.39
2023-08-11T19:39:15.890Z,35.95
2023-08-11T19:41:45.383Z,36.26
2023-08-11T19:44:15.312Z,36.40
2023-08-11T19:46:44.725Z,36.33
2023-08-11T19:49:14.152Z,36.15
2023-08-11T19:51:46.234Z,36.58
2023-08-11T19:54:15.827Z,36.97
2023-08-11T19:56:47.907Z,37.20
2023-08-11T19:59:20.085Z,37.56
2023-08-11T20:01:52.081Z,37.74
2023-08-11T20:04:26.092Z,37.94
2023-08-11T20:06:57.755Z,38.34
2023-08-11T20:09:34.669Z,38.65
2023-08-11T20:12:08.895Z,38.97
2023-08-11T20:14:40.347Z,39.13
2023-08-11T20:17:11.260Z,39.44
2023-08-11T20:19:43.613Z,40.05
2023-08-11T20:22:15.131Z,40.27
2023-08-11T20:24:47.122Z,40.19
2023-08-11T20:27:23.213Z,40.63
2023-08-11T20:29:55.647Z,41.03
2023-08-11T20:32:27.162Z,41.02
2023-08-11T20:34:58.007Z,41.50
2023-08-11T20:37:30.009Z,41.64
2023-08-11T20:39:59.760Z,42.00
2023-08-11T20:42:30.990Z,42.23
2023-08-11T20:45:02.435Z,42.32
2023-08-11T20:47:32.892Z,42.20
2023-08-11T20:50:03.274Z,42.62
2023-08-11T20:52:34.324Z,42.90
2023-08-11T20:55:05.341Z,42.77
2023-08-11T20:57:35.870Z,42.42
2023-08-11T21:00:08.086Z,42.39
2023-08-11T21:02:40.142Z,42.51
2023-08-11T21:05:10.585Z,42.85
2023-08-11T21:07:40.665Z,42.99
2023-08-11T21:10:10.505Z,43.50
2023-08-11T21:12:40.434Z,43.55
2023-08-11T21:15:10.867Z,43.79
2023-08-11T21:17:40.813Z,43.77
2023-08-11T21:20:11.520Z,44.28
2023-08-11T21:22:41.430Z,44.51
2023-08-11T21:25:12.036Z,45.16
2023-08-11T21:27:41.463Z,45.51
2023-08-11T21:30:11.494Z,45.92
2023-08-11T21:32:41.023Z,46.22
2023-08-11T21:35:10.832Z,46.39
2023-08-11T21:37:40.549Z,46.66
2023-08-11T21:40:11.447Z,46.92
2023-08-11T21:42:41.613Z,47.17
2023-08-11T21:45:12.574Z,47.46
2023-08-11T21:47:42.216Z,47.51
2023-08-11T21:50:12.244Z,47.60
2023-08-11T21:52:42.118Z,47.58
2023-08-11T21:55:11.300Z,47.64
2023-08-11T21:57:40.733Z,47.72
2023-08-11T22:00:10.469Z,47.80
2023-08-11T22:02:39.995Z,48.03
2023-08-11T22:05:34.238Z,48.05
2023-08-11T22:08:03.292Z,48.39
2023-08-11T22:10:32.467Z,48.89
2023-08-11T22:13:02.429Z,49.29
2023-08-11T22:15:31.681Z,49.53
2023-08-11T22:18:01.190Z,49.71
2023-08-11T22:20:30.935Z,49.97
2023-08-11T22:23:00.659Z,50.15
2023-08-11T22:25:29.781Z,50.38
2023-08-11T22:27:59.297Z,50.58
2023-08-11T22:30:29.183Z,50.85
2023-08-11T22:32:58.927Z,50.66
2023-08-11T22:35:29.434Z,50.51
2023-08-11T22:37:58.347Z,50.38
2023-08-11T22:40:27.577Z,50.39
2023-08-11T22:42:57.728Z,50.01
2023-08-11T22:45:27.556Z,50.24
2023-08-11T22:47:56.828Z,50.63
2023-08-11T22:50:26.823Z,51.11
2023-08-11T22:52:56.121Z,51.22
2023-08-11T22:55:25.217Z,51.33
2023-08-11T22:57:54.961Z,51.82
2023-08-11T23:00:23.989Z,52.39
2023-08-11T23:02:53.796Z,52.20
2023-08-11T23:05:23.537Z,52.22
2023-08-11T23:07:55.631Z,52.00
2023-08-11T23:10:24.905Z,52.09
2023-08-11T23:12:54.477Z,52.33
2023-08-11T23:15:24.105Z,52.33
2023-08-11T23:17:54.300Z,52.51
2023-08-11T23:20:23.673Z,52.37
2023-08-11T23:22:53.057Z,52.01
2023-08-11T23:25:22.609Z,52.31
2023-08-11T23:27:52.695Z,52.11
2023-08-11T23:30:22.282Z,52.07
2023-08-11T23:32:51.673Z,52.09
2023-08-11T23:35:21.555Z,52.25
2023-08-11T23:37:52.463Z,52.03
2023-08-11T23:40:24.097Z,52.29
2023-08-11T23:42:53.642Z,52.13
2023-08-11T23:45:22.558Z,52.52
2023-08-11T23:47:52.008Z,52.57
2023-08-11T23:50:21.356Z,52.36
2023-08-11T23:52:52.361Z,52.56
2023-08-11T23:55:24.016Z,52.55
2023-08-11T23:57:53.487Z,52.42
